Time;durP1;ratioP1;P1;durP2;ratioP2;P2;SDS_P1;SDS_P2;PMS_P1;PMS_P2;Temp;Humidity;BMP_temperature;BMP_pressure;BME280_temperature;BME280_humidity;BME280_pressure;Samples;Min_cycle;Max_cycle;Signal;HPM_P1;HPM_P2
2022/05/16 00:00:50;;;;;;;9.95;3.17;;;;;;;-145.45;100.00;62759.84;5337988;27;20297;-76
2022/05/16 00:03:21;;;;;;;11.18;4.28;;;;;;;-145.45;100.00;62759.84;5341279;27;20112;-76
2022/05/16 00:05:53;;;;;;;12.43;3.75;;;;;;;-145.45;100.00;62759.84;5338461;27;20139;-76
2022/05/16 00:08:24;;;;;;;11.82;3.75;;;;;;;-145.45;100.00;62759.84;5327202;27;20044;-76
2022/05/16 00:10:56;;;;;;;11.48;3.85;;;;;;;-145.45;100.00;62759.84;5317882;27;20123;-76
2022/05/16 00:13:28;;;;;;;9.13;3.88;;;;;;;-145.45;100.00;62759.84;5316828;27;20341;-76
2022/05/16 00:16:00;;;;;;;9.25;3.65;;;;;;;-145.45;100.00;62759.84;5295438;27;20024;-76
2022/05/16 00:18:32;;;;;;;12.82;3.83;;;;;;;-145.45;100.00;62759.84;5322858;27;20369;-76
2022/05/16 00:21:03;;;;;;;14.20;3.90;;;;;;;-145.45;100.00;62759.84;5319254;27;20021;-76
2022/05/16 00:23:37;;;;;;;11.30;4.07;;;;;;;-145.45;100.00;62759.84;5318310;27;20073;-76
2022/05/16 00:26:09;;;;;;;10.73;4.22;;;;;;;-145.45;100.00;62759.84;5316676;27;41578;-76
2022/05/16 00:28:40;;;;;;;13.30;4.60;;;;;;;-145.45;100.00;62759.84;5320054;27;20417;-76
2022/05/16 00:31:11;;;;;;;10.68;4.13;;;;;;;-145.45;100.00;62759.84;5312759;27;20082;-76
2022/05/16 00:33:42;;;;;;;10.68;3.42;;;;;;;-145.45;100.00;62759.84;5311740;27;20024;-76
2022/05/16 00:36:14;;;;;;;10.18;4.07;;;;;;;-145.45;100.00;62759.84;5311957;27;20028;-77
2022/05/16 00:38:45;;;;;;;10.85;4.22;;;;;;;-145.45;100.00;62759.84;5315355;27;20563;-76
2022/05/16 00:41:16;;;;;;;10.15;3.97;;;;;;;-145.45;100.00;62759.84;5304118;27;20028;-76
2022/05/16 00:43:52;;;;;;;13.38;3.50;;;;;;;-145.45;100.00;62759.84;5313662;27;20024;-76
2022/05/16 00:46:29;;;;;;;11.55;3.88;;;;;;;-145.45;100.00;62759.84;5314701;27;20028;-76
2022/05/16 00:49:03;;;;;;;11.45;4.30;;;;;;;-145.45;100.00;62759.84;5313505;27;20044;-76
2022/05/16 00:51:44;;;;;;;12.20;4.63;;;;;;;-145.45;100.00;62759.84;5315050;27;20539;-76
2022/05/16 00:54:20;;;;;;;12.45;3.70;;;;;;;-145.45;100.00;62759.84;5306077;27;20533;-76
2022/05/16 00:56:59;;;;;;;12.68;4.40;;;;;;;-145.45;100.00;62759.84;5315916;27;20488;-77
2022/05/16 00:59:39;;;;;;;11.43;4.03;;;;;;;-145.45;100.00;62759.84;5315362;27;20063;-77
2022/05/16 01:05:01;;;;;;;10.02;3.95;;;;;;;-145.45;100.00;62759.84;5312066;27;20473;-76
2022/05/16 01:07:36;;;;;;;8.65;3.95;;;;;;;-145.45;100.00;62759.84;5314295;27;20056;-76
2022/05/16 01:10:10;;;;;;;10.45;3.78;;;;;;;-145.45;100.00;62759.84;5312909;27;20036;-76
2022/05/16 01:12:44;;;;;;;8.65;3.63;;;;;;;-145.45;100.00;62759.84;5308874;27;20374;-76
2022/05/16 01:15:27;;;;;;;10.45;4.68;;;;;;;-145.45;100.00;62759.84;5297138;28;20027;-75
2022/05/16 01:17:58;;;;;;;10.80;3.78;;;;;;;-145.45;100.00;62759.84;5312767;27;21115;-76
2022/05/16 01:20:53;;;;;;;16.08;4.32;;;;;;;-145.45;100.00;62759.84;5313212;27;20078;-76
2022/05/16 01:23:28;;;;;;;12.25;4.53;;;;;;;-145.45;100.00;62759.84;5292787;27;20033;-76
2022/05/16 01:26:01;;;;;;;11.40;4.35;;;;;;;-145.45;100.00;62759.84;5311987;27;20058;-76
2022/05/16 01:28:32;;;;;;;11.43;3.72;;;;;;;-145.45;100.00;62759.84;5311760;27;20024;-76
2022/05/16 01:31:03;;;;;;;13.75;4.40;;;;;;;-145.45;100.00;62759.84;5316323;27;20036;-76
2022/05/16 01:33:35;;;;;;;7.93;3.90;;;;;;;-145.45;100.00;62759.84;5310967;27;20016;-76
2022/05/16 01:36:06;;;;;;;14.05;4.97;;;;;;;-145.45;100.00;62759.84;5306375;27;20040;-76
2022/05/16 01:38:39;;;;;;;9.23;4.10;;;;;;;-145.45;100.00;62759.84;5311177;27;20035;-76
2022/05/16 01:41:13;;;;;;;12.85;4.45;;;;;;;-145.45;100.00;62759.84;5311996;27;20051;-76
2022/05/16 01:43:48;;;;;;;10.10;4.15;;;;;;;-145.45;100.00;62759.84;5305908;27;20031;-76
2022/05/16 01:46:26;;;;;;;12.50;4.53;;;;;;;-145.45;100.00;62759.84;5312871;27;20020;-76
2022/05/16 01:48:57;;;;;;;14.63;4.55;;;;;;;-145.45;100.00;62759.84;5308968;27;20074;-76
2022/05/16 01:51:28;;;;;;;10.55;3.95;;;;;;;-145.45;100.00;62759.84;5313208;27;20148;-76
2022/05/16 01:54:02;;;;;;;10.63;3.70;;;;;;;-145.45;100.00;62759.84;5319237;28;20107;-76
2022/05/16 01:56:34;;;;;;;7.38;4.20;;;;;;;-145.45;100.00;62759.84;5291836;27;20404;-76
2022/05/16 01:59:06;;;;;;;11.40;4.32;;;;;;;-145.45;100.00;62759.84;5311065;27;20173;-76
2022/05/16 02:01:38;;;;;;;11.05;4.30;;;;;;;-145.45;100.00;62759.84;5296940;27;20135;-76
2022/05/16 02:04:09;;;;;;;9.63;4.38;;;;;;;-145.45;100.00;62759.84;5313342;27;20039;-77
2022/05/16 02:06:40;;;;;;;9.13;3.20;;;;;;;-145.45;100.00;62759.84;5293139;27;20389;-76
2022/05/16 02:09:11;;;;;;;10.95;4.30;;;;;;;-145.45;100.00;62759.84;5312663;27;20049;-76
2022/05/16 02:11:43;;;;;;;14.48;4.65;;;;;;;-145.45;100.00;62759.84;5312952;27;20046;-76
2022/05/16 02:14:14;;;;;;;10.02;4.60;;;;;;;-145.45;100.00;62759.84;5317862;27;20024;-76
2022/05/16 02:16:46;;;;;;;10.50;4.40;;;;;;;-145.45;100.00;62759.84;5318607;27;20350;-76
2022/05/16 02:19:18;;;;;;;9.95;4.35;;;;;;;-145.45;100.00;62759.84;5299488;27;20020;-76
2022/05/16 02:24:39;;;;;;;10.15;4.25;;;;;;;-145.45;100.00;62759.84;5317918;27;20063;-76
2022/05/16 02:27:13;;;;;;;11.05;4.40;;;;;;;-145.45;100.00;62759.84;5318960;27;20106;-76
2022/05/16 02:29:45;;;;;;;8.32;3.95;;;;;;;-145.45;100.00;62759.84;5319298;27;20125;-76
2022/05/16 02:32:17;;;;;;;11.27;4.53;;;;;;;-145.45;100.00;62759.84;5319269;27;20574;-76
2022/05/16 02:34:48;;;;;;;8.98;4.50;;;;;;;-145.45;100.00;62759.84;5319376;27;20020;-76
2022/05/16 02:37:19;;;;;;;9.05;4.10;;;;;;;-145.45;100.00;62759.84;5320357;27;20532;-76
2022/05/16 02:39:50;;;;;;;9.65;4.10;;;;;;;-145.45;100.00;62759.84;5321033;27;20020;-76
2022/05/16 02:42:22;;;;;;;8.10;4.07;;;;;;;-145.45;100.00;62759.84;5296386;27;20028;-76
2022/05/16 02:44:53;;;;;;;10.95;4.10;;;;;;;-145.45;100.00;62759.84;5301624;27;20031;-76
2022/05/16 02:47:25;;;;;;;8.98;3.80;;;;;;;-145.45;100.00;62759.84;5300392;27;20029;-76
2022/05/16 02:49:56;;;;;;;8.77;4.38;;;;;;;-145.45;100.00;62759.84;5300886;28;20077;-76
2022/05/16 02:52:27;;;;;;;9.32;4.65;;;;;;;-145.45;100.00;62759.84;5318244;27;20056;-76
2022/05/16 02:55:04;;;;;;;9.80;4.28;;;;;;;-145.45;100.00;62759.84;5318045;28;20436;-76
2022/05/16 02:57:36;;;;;;;9.45;3.72;;;;;;;-145.45;100.00;62759.84;5319902;28;20020;-76
2022/05/16 03:00:09;;;;;;;9.05;3.97;;;;;;;-145.45;100.00;62759.84;5321117;28;20321;-76
2022/05/16 03:02:41;;;;;;;11.10;4.57;;;;;;;-145.45;100.00;62759.84;5319299;28;20024;-76
2022/05/16 03:05:13;;;;;;;8.80;4.18;;;;;;;-145.45;100.00;62759.84;5297177;28;20035;-76
2022/05/16 03:07:44;;;;;;;9.23;3.85;;;;;;;-145.45;100.00;62759.84;5330491;27;20039;-76
2022/05/16 03:10:16;;;;;;;6.97;4.15;;;;;;;-145.45;100.00;62759.84;5341302;27;20064;-76
2022/05/16 03:12:49;;;;;;;7.63;3.50;;;;;;;-145.45;100.00;62759.84;5343798;27;20030;-76
2022/05/16 03:15:20;;;;;;;9.60;3.90;;;;;;;-145.45;100.00;62759.84;5344235;27;20031;-76
2022/05/16 03:17:51;;;;;;;10.30;4.10;;;;;;;-145.45;100.00;62759.84;5337852;27;39841;-76
2022/05/16 03:20:22;;;;;;;9.27;4.03;;;;;;;-145.45;100.00;62759.84;5342979;27;21479;-76
2022/05/16 03:22:54;;;;;;;10.18;4.28;;;;;;;-145.45;100.00;62759.84;5342712;27;20442;-76
2022/05/16 03:25:25;;;;;;;9.73;4.18;;;;;;;-145.45;100.00;62759.84;5337427;27;20835;-76
2022/05/16 03:27:57;;;;;;;8.63;4.25;;;;;;;-145.45;100.00;62759.84;5336330;27;20414;-76
2022/05/16 03:30:28;;;;;;;10.07;3.80;;;;;;;-145.45;100.00;62759.84;5334028;27;20051;-76
2022/05/16 03:33:00;;;;;;;8.80;4.60;;;;;;;-145.45;100.00;62759.84;5333066;27;20030;-77
2022/05/16 03:35:32;;;;;;;7.28;3.97;;;;;;;-145.45;100.00;62759.84;5335121;27;20019;-76
2022/05/16 03:38:03;;;;;;;14.02;4.13;;;;;;;-145.45;100.00;62759.84;5340731;27;20057;-76
2022/05/16 03:40:45;;;;;;;7.35;4.32;;;;;;;-145.45;100.00;62759.84;5339576;27;20028;-76
2022/05/16 03:43:16;;;;;;;9.50;3.83;;;;;;;-145.45;100.00;62759.84;5335313;27;20027;-77
2022/05/16 03:45:47;;;;;;;6.03;3.72;;;;;;;-145.45;100.00;62759.84;5330558;27;20035;-77
2022/05/16 03:48:18;;;;;;;10.57;4.05;;;;;;;-145.45;100.00;62759.84;5335739;27;20097;-76
2022/05/16 03:50:50;;;;;;;7.63;3.72;;;;;;;-145.45;100.00;62759.84;5333659;27;20406;-76
2022/05/16 03:53:21;;;;;;;11.30;4.00;;;;;;;-145.45;100.00;62759.84;5331437;27;20027;-76
2022/05/16 03:55:53;;;;;;;9.93;3.90;;;;;;;-145.45;100.00;62759.84;5338925;27;20258;-77
2022/05/16 03:58:24;;;;;;;7.20;3.75;;;;;;;-145.45;100.00;62759.84;5338799;27;20027;-76
2022/05/16 04:00:56;;;;;;;6.97;3.70;;;;;;;-145.45;100.00;62759.84;5334829;27;20040;-76
2022/05/16 04:03:27;;;;;;;7.93;3.80;;;;;;;-145.45;100.00;62759.84;5338535;27;20225;-76
2022/05/16 04:05:59;;;;;;;8.23;3.88;;;;;;;-145.45;100.00;62759.84;5334495;27;20122;-76
2022/05/16 04:08:31;;;;;;;8.55;3.95;;;;;;;-145.45;100.00;62759.84;5332772;27;20051;-77
2022/05/16 04:11:03;;;;;;;7.35;4.22;;;;;;;-145.45;100.00;62759.84;5337083;27;20038;-76
2022/05/16 04:13:35;;;;;;;8.95;3.60;;;;;;;-145.45;100.00;62759.84;5311263;27;20059;-77
2022/05/16 04:16:06;;;;;;;8.48;4.53;;;;;;;-145.45;100.00;62759.84;5316100;27;20450;-77
2022/05/16 04:18:38;;;;;;;6.18;3.75;;;;;;;-145.45;100.00;62759.84;5337302;27;20364;-77
2022/05/16 04:21:09;;;;;;;7.38;3.63;;;;;;;-145.45;100.00;62759.84;5336304;27;20084;-76
2022/05/16 04:23:41;;;;;;;6.90;4.13;;;;;;;-145.45;100.00;62759.84;5335242;27;20031;-77
2022/05/16 04:26:12;;;;;;;4.85;3.90;;;;;;;-145.45;100.00;62759.84;5328698;27;20169;-77
2022/05/16 04:28:43;;;;;;;13.05;4.13;;;;;;;-145.45;100.00;62759.84;5318809;27;20122;-77
2022/05/16 04:31:15;;;;;;;9.43;3.88;;;;;;;-145.45;100.00;62759.84;5335451;27;20114;-84
2022/05/16 04:33:46;;;;;;;11.13;4.80;;;;;;;-145.45;100.00;62759.84;5315220;27;20134;-76
2022/05/16 04:36:17;;;;;;;11.85;3.92;;;;;;;-145.45;100.00;62759.84;5335182;27;20044;-76
2022/05/16 04:38:49;;;;;;;8.65;3.80;;;;;;;-145.45;100.00;62759.84;5330720;27;20020;-76
2022/05/16 04:44:10;;;;;;;7.38;4.45;;;;;;;-145.45;100.00;62759.84;5318678;27;20035;-76
2022/05/16 04:46:41;;;;;;;11.23;4.30;;;;;;;-145.45;100.00;62759.84;5315272;27;20074;-76
2022/05/16 04:49:12;;;;;;;18.35;4.47;;;;;;;-145.45;100.00;62759.84;5331549;27;20392;-77
2022/05/16 04:51:43;;;;;;;11.98;4.53;;;;;;;-145.45;100.00;62759.84;5312292;27;20040;-76
2022/05/16 04:54:15;;;;;;;9.60;4.40;;;;;;;-145.45;100.00;62759.84;5332984;27;41798;-77
2022/05/16 04:56:47;;;;;;;11.38;4.10;;;;;;;-145.45;100.00;62759.84;5316849;27;20019;-77
2022/05/16 04:59:19;;;;;;;7.78;3.63;;;;;;;-145.45;100.00;62759.84;5332487;27;20472;-77
2022/05/16 05:01:51;;;;;;;10.15;3.53;;;;;;;-145.45;100.00;62759.84;5331859;27;20039;-77
2022/05/16 05:04:22;;;;;;;11.23;3.88;;;;;;;-145.45;100.00;62759.84;5335819;27;20037;-76
2022/05/16 05:06:53;;;;;;;7.72;4.22;;;;;;;-145.45;100.00;62759.84;5313489;27;20291;-76
2022/05/16 05:09:25;;;;;;;11.02;3.55;;;;;;;-145.45;100.00;62759.84;5315149;27;20040;-76
2022/05/16 05:14:46;;;;;;;6.28;3.55;;;;;;;-145.45;100.00;62759.84;5313752;27;20527;-76
2022/05/16 05:17:17;;;;;;;8.55;3.60;;;;;;;-145.45;100.00;62759.84;5314686;27;20143;-76
2022/05/16 05:19:49;;;;;;;11.77;3.90;;;;;;;-145.45;100.00;62759.84;5313361;27;20027;-76
2022/05/16 05:22:20;;;;;;;7.53;3.60;;;;;;;-145.45;100.00;62759.84;5315476;27;20338;-76
2022/05/16 05:24:51;;;;;;;11.25;3.50;;;;;;;-145.45;100.00;62759.84;5319279;27;20893;-76
2022/05/16 05:27:22;;;;;;;10.50;4.38;;;;;;;-145.45;100.00;62759.84;5321555;27;20480;-77
2022/05/16 05:29:54;;;;;;;10.10;3.58;;;;;;;-145.45;100.00;62759.84;5310549;27;20032;-76
2022/05/16 05:32:26;;;;;;;8.43;3.53;;;;;;;-145.45;100.00;62759.84;5315711;27;21648;-76
2022/05/16 05:34:57;;;;;;;14.30;3.47;;;;;;;-145.45;100.00;62759.84;5294112;27;20199;-76
2022/05/16 05:37:28;;;;;;;11.32;3.47;;;;;;;-145.45;100.00;62759.84;5315943;27;20073;-76
2022/05/16 05:40:01;;;;;;;8.07;3.50;;;;;;;-145.45;100.00;62759.84;5316943;27;20114;-76
2022/05/16 05:42:32;;;;;;;8.88;4.53;;;;;;;-145.45;100.00;62759.84;5295287;27;20028;-77
2022/05/16 05:45:06;;;;;;;10.30;4.43;;;;;;;-145.45;100.00;62759.84;5312194;27;20077;-76
2022/05/16 05:47:37;;;;;;;9.00;3.35;;;;;;;-145.45;100.00;62759.84;5316295;27;20024;-76
2022/05/16 05:50:09;;;;;;;7.15;3.20;;;;;;;-145.45;100.00;62759.84;5296846;27;20100;-77
2022/05/16 05:52:40;;;;;;;8.93;3.70;;;;;;;-145.45;100.00;62759.84;5322994;27;20447;-77
2022/05/16 05:55:12;;;;;;;8.77;3.20;;;;;;;-145.45;100.00;62759.84;5315035;27;20138;-77
2022/05/16 05:57:43;;;;;;;8.90;3.47;;;;;;;-145.45;100.00;62759.84;5298646;27;20437;-77
2022/05/16 06:00:15;;;;;;;7.20;3.00;;;;;;;-145.45;100.00;62759.84;5317910;27;20122;-77
2022/05/16 06:02:47;;;;;;;11.80;3.80;;;;;;;-145.45;100.00;62759.84;5318880;27;20070;-77
2022/05/16 06:05:20;;;;;;;7.47;3.42;;;;;;;-145.45;100.00;62759.84;5301564;28;20103;-77
2022/05/16 06:07:51;;;;;;;10.13;3.63;;;;;;;-145.45;100.00;62759.84;5322142;27;20044;-76
2022/05/16 06:10:23;;;;;;;8.52;3.38;;;;;;;-145.45;100.00;62759.84;5324943;27;20020;-77
2022/05/16 06:12:54;;;;;;;12.55;3.55;;;;;;;-145.45;100.00;62759.84;5323273;27;20047;-77
2022/05/16 06:15:26;;;;;;;9.77;2.90;;;;;;;-145.45;100.00;62759.84;5319837;27;20400;-77
2022/05/16 06:17:57;;;;;;;9.75;3.20;;;;;;;-145.45;100.00;62759.84;5317624;27;20097;-77
2022/05/16 06:20:28;;;;;;;9.20;3.58;;;;;;;-145.45;100.00;62759.84;5319687;27;20097;-77
2022/05/16 06:22:59;;;;;;;6.22;3.15;;;;;;;-145.45;100.00;62759.84;5308688;27;20456;-78
2022/05/16 06:25:31;;;;;;;14.50;3.40;;;;;;;-145.45;100.00;62759.84;5306513;28;20388;-78
2022/05/16 06:28:07;;;;;;;22.33;3.97;;;;;;;-145.45;100.00;62759.84;5320416;28;20025;-78
2022/05/16 06:30:45;;;;;;;11.68;3.33;;;;;;;-145.45;100.00;62759.84;5314195;27;20020;-78
2022/05/16 06:33:17;;;;;;;17.58;3.80;;;;;;;-145.45;100.00;62759.84;5306458;28;20137;-77
2022/05/16 06:35:49;;;;;;;12.27;3.58;;;;;;;-145.45;100.00;62759.84;5312231;27;20037;-77
2022/05/16 06:38:27;;;;;;;12.98;3.63;;;;;;;-145.45;100.00;62759.84;5320234;27;20024;-76
2022/05/16 06:40:59;;;;;;;10.18;4.03;;;;;;;-145.45;100.00;62759.84;5324111;27;20100;-77
2022/05/16 06:43:32;;;;;;;11.77;4.10;;;;;;;-145.45;100.00;62759.84;5317479;28;20329;-77
2022/05/16 06:46:03;;;;;;;11.85;3.42;;;;;;;-145.45;100.00;62759.84;5325604;27;20073;-76
2022/05/16 06:48:35;;;;;;;8.07;2.95;;;;;;;-145.45;100.00;62759.84;5327765;28;20016;-76
2022/05/16 06:51:06;;;;;;;11.25;3.25;;;;;;;-145.45;100.00;62759.84;5326452;28;20024;-76
2022/05/16 06:53:37;;;;;;;19.60;3.55;;;;;;;-145.45;100.00;62759.84;5309194;28;20188;-77
2022/05/16 06:56:09;;;;;;;15.52;3.92;;;;;;;-145.45;100.00;62759.84;5327394;28;20077;-77
2022/05/16 06:58:40;;;;;;;11.23;3.20;;;;;;;-145.45;100.00;62759.84;5318548;28;20020;-77
2022/05/16 07:01:12;;;;;;;8.88;3.10;;;;;;;-145.45;100.00;62759.84;5300754;28;30480;-77
2022/05/16 07:03:43;;;;;;;8.60;3.30;;;;;;;-145.45;100.00;62759.84;5293868;28;20035;-77
2022/05/16 07:06:14;;;;;;;12.73;3.50;;;;;;;-145.45;100.00;62759.84;5320460;27;20020;-77
2022/05/16 07:08:46;;;;;;;7.20;2.95;;;;;;;-145.45;100.00;62759.84;5321175;27;20073;-77
2022/05/16 07:11:17;;;;;;;11.27;3.47;;;;;;;-145.45;100.00;62759.84;5324728;27;20118;-77
2022/05/16 07:13:48;;;;;;;9.55;3.03;;;;;;;-145.45;100.00;62759.84;5333161;27;20027;-77
2022/05/16 07:16:19;;;;;;;11.65;3.08;;;;;;;-145.45;100.00;62759.84;5325021;27;20365;-77
2022/05/16 07:18:51;;;;;;;7.67;2.63;;;;;;;-145.45;100.00;62759.84;5302514;27;20108;-77
2022/05/16 07:21:22;;;;;;;8.55;3.00;;;;;;;-145.45;100.00;62759.84;5301536;27;20702;-77
2022/05/16 07:23:56;;;;;;;9.32;3.10;;;;;;;-145.45;100.00;62759.84;5320280;27;20408;-77
2022/05/16 07:29:17;;;;;;;15.45;3.72;;;;;;;-145.45;100.00;62759.84;5319262;27;20040;-78
2022/05/16 07:31:51;;;;;;;13.27;3.30;;;;;;;-145.45;100.00;62759.84;5292272;28;20051;-78
2022/05/16 07:34:22;;;;;;;21.40;3.60;;;;;;;-145.45;100.00;62759.84;5312025;27;20059;-77
2022/05/16 07:36:53;;;;;;;14.23;3.28;;;;;;;-145.45;100.00;62759.84;5324047;28;20110;-77
2022/05/16 07:39:25;;;;;;;17.25;3.05;;;;;;;-145.45;100.00;62759.84;5308309;28;20365;-77
2022/05/16 07:41:56;;;;;;;13.55;2.92;;;;;;;-145.45;100.00;62759.84;5313510;28;20400;-77
2022/05/16 07:44:27;;;;;;;15.07;3.63;;;;;;;-145.45;100.00;62759.84;5324733;27;27521;-77
2022/05/16 07:46:59;;;;;;;11.52;3.28;;;;;;;-145.45;100.00;62759.84;5334985;27;20487;-78
2022/05/16 07:49:30;;;;;;;12.07;3.17;;;;;;;-145.45;100.00;62759.84;5338417;27;20024;-78
2022/05/16 07:52:03;;;;;;;10.68;2.40;;;;;;;-145.45;100.00;62759.84;5322869;27;20023;-77
2022/05/16 07:54:35;;;;;;;9.60;2.55;;;;;;;-145.45;100.00;62759.84;5329300;28;20458;-77
2022/05/16 07:57:06;;;;;;;8.95;2.50;;;;;;;-145.45;100.00;62759.84;5327988;27;20090;-77
2022/05/16 07:59:39;;;;;;;6.97;2.60;;;;;;;-145.45;100.00;62759.84;5310110;28;20035;-77
2022/05/16 08:02:12;;;;;;;11.25;2.60;;;;;;;-145.45;100.00;62759.84;5327971;27;20039;-77
2022/05/16 08:04:43;;;;;;;7.90;2.38;;;;;;;-145.45;100.00;62759.84;5325877;28;20028;-78
2022/05/16 08:07:15;;;;;;;15.95;2.88;;;;;;;-145.45;100.00;62759.84;5324506;27;20051;-77
2022/05/16 08:12:38;;;;;;;9.07;2.50;;;;;;;-145.45;100.00;62759.84;5324539;27;20107;-76
2022/05/16 08:15:09;;;;;;;8.25;2.22;;;;;;;-145.45;100.00;62759.84;5325643;28;20395;-76
2022/05/16 08:17:41;;;;;;;7.18;2.65;;;;;;;-145.45;100.00;62759.84;5324645;27;20032;-76
2022/05/16 08:20:12;;;;;;;7.70;2.30;;;;;;;-145.45;100.00;62759.84;5325497;28;20020;-77
2022/05/16 08:22:43;;;;;;;10.30;2.10;;;;;;;-145.45;100.00;62759.84;5324371;27;20290;-78
2022/05/16 08:25:15;;;;;;;7.75;2.00;;;;;;;-145.45;100.00;62759.84;5322509;27;20028;-76
2022/05/16 08:27:50;;;;;;;7.75;2.17;;;;;;;-145.45;100.00;62759.84;5313798;28;20396;-76
2022/05/16 08:30:23;;;;;;;11.20;2.85;;;;;;;-145.45;100.00;62759.84;5311646;27;20115;-76
2022/05/16 08:32:57;;;;;;;8.00;2.30;;;;;;;-145.45;100.00;62759.84;5306276;28;20024;-77
2022/05/16 08:35:29;;;;;;;9.60;2.95;;;;;;;-145.45;100.00;62759.84;5324635;28;20404;-77
2022/05/16 08:41:09;;;;;;;4.78;1.65;;;;;;;-145.45;100.00;62759.84;5319863;28;20061;-77
2022/05/16 08:43:50;;;;;;;9.25;2.10;;;;;;;-145.45;100.00;62759.84;5324025;28;20024;-77
2022/05/16 08:46:58;;;;;;;7.38;1.88;;;;;;;-145.45;100.00;62759.84;5305607;28;20012;-76
2022/05/16 08:49:43;;;;;;;6.18;1.90;;;;;;;-145.45;100.00;62759.84;5268989;27;20075;-77
2022/05/16 08:52:27;;;;;;;5.25;1.85;;;;;;;-145.45;100.00;62759.84;5321812;27;20051;-77
2022/05/16 08:55:05;;;;;;;5.10;1.60;;;;;;;-145.45;100.00;62759.84;5316918;27;20063;-76
2022/05/16 08:57:46;;;;;;;9.68;2.35;;;;;;;-145.45;100.00;62759.84;5322591;28;20263;-77
2022/05/16 09:00:28;;;;;;;13.48;2.50;;;;;;;-145.45;100.00;62759.84;5303487;28;20028;-76
2022/05/16 09:03:04;;;;;;;13.07;2.35;;;;;;;-145.45;100.00;62759.84;5313734;28;20056;-77
2022/05/16 09:05:40;;;;;;;7.35;1.90;;;;;;;-145.45;100.00;62759.84;5322808;28;20535;-76
2022/05/16 09:08:22;;;;;;;6.65;2.00;;;;;;;-145.45;100.00;62759.84;5324564;27;20047;-76
2022/05/16 09:11:07;;;;;;;9.95;1.75;;;;;;;-145.45;100.00;62759.84;5324377;28;20024;-76
2022/05/16 09:14:04;;;;;;;3.63;1.60;;;;;;;-145.45;100.00;62759.84;5322233;28;20024;-76
2022/05/16 09:16:52;;;;;;;5.93;1.95;;;;;;;-145.45;100.00;62759.84;5290756;28;20143;-77
2022/05/16 09:19:36;;;;;;;10.38;2.05;;;;;;;-145.45;100.00;62759.84;5303569;28;20467;-77
2022/05/16 09:22:42;;;;;;;10.40;2.00;;;;;;;-145.45;100.00;62759.84;5302763;28;20441;-76
2022/05/16 09:25:19;;;;;;;10.30;1.97;;;;;;;-145.45;100.00;62759.84;5294071;28;20020;-77
2022/05/16 09:30:48;;;;;;;10.80;2.33;;;;;;;-145.45;100.00;62759.84;5313317;27;20024;-77
2022/05/16 09:33:27;;;;;;;6.18;2.00;;;;;;;-145.45;100.00;62759.84;5323454;28;20484;-77
2022/05/16 09:36:05;;;;;;;8.40;1.98;;;;;;;-145.45;100.00;62759.84;5323264;28;20480;-77
2022/05/16 09:38:43;;;;;;;8.25;2.00;;;;;;;-145.45;100.00;62759.84;5324226;28;20036;-76
2022/05/16 09:41:21;;;;;;;6.53;1.60;;;;;;;-145.45;100.00;62759.84;5325805;28;20416;-76
2022/05/16 09:44:11;;;;;;;7.47;2.30;;;;;;;-145.45;100.00;62759.84;5327234;28;20429;-76
2022/05/16 09:46:43;;;;;;;11.57;2.17;;;;;;;-145.45;100.00;62759.84;5327809;27;20433;-76
2022/05/16 09:49:27;;;;;;;9.35;2.10;;;;;;;-145.45;100.00;62759.84;5319365;28;20073;-77
2022/05/16 09:52:01;;;;;;;4.65;1.92;;;;;;;-145.45;100.00;62759.84;5303691;28;40821;-76
2022/05/16 09:54:35;;;;;;;12.52;2.28;;;;;;;-145.45;100.00;62759.84;5304395;28;20369;-77
2022/05/16 09:57:20;;;;;;;5.87;1.97;;;;;;;-145.45;100.00;62759.84;5310013;28;20110;-76
2022/05/16 10:00:12;;;;;;;16.00;2.90;;;;;;;-145.45;100.00;62759.84;5303293;28;20254;-76
2022/05/16 10:02:54;;;;;;;8.13;1.95;;;;;;;-145.45;100.00;62759.84;5301735;28;20385;-76
2022/05/16 10:05:31;;;;;;;14.98;2.65;;;;;;;-145.45;100.00;62759.84;5304547;28;20039;-76
2022/05/16 10:08:14;;;;;;;19.45;3.10;;;;;;;-145.45;100.00;62759.84;5285523;28;20045;-76
2022/05/16 10:10:47;;;;;;;22.60;3.47;;;;;;;-145.45;100.00;62759.84;5306034;28;20040;-76
2022/05/16 10:13:18;;;;;;;9.20;2.60;;;;;;;-145.45;100.00;62759.84;5304977;28;20027;-75
2022/05/16 10:15:54;;;;;;;12.18;3.30;;;;;;;-145.45;100.00;62759.84;5303876;27;20032;-74
2022/05/16 10:18:28;;;;;;;25.67;3.85;;;;;;;-145.45;100.00;62759.84;5306488;28;20355;-75
2022/05/16 10:21:03;;;;;;;6.03;2.25;;;;;;;-145.45;100.00;62759.84;5318110;28;20088;-74
2022/05/16 10:23:38;;;;;;;33.42;4.18;;;;;;;-145.45;100.00;62759.84;5303236;28;20093;-75
2022/05/16 10:26:17;;;;;;;13.45;3.50;;;;;;;-145.45;100.00;62759.84;5323586;28;20115;-75
2022/05/16 10:28:59;;;;;;;20.92;3.83;;;;;;;-145.45;100.00;62759.84;5319273;28;20020;-75
2022/05/16 10:34:50;;;;;;;9.35;3.00;;;;;;;-145.45;100.00;62759.84;5315114;27;20071;-75
2022/05/16 10:37:23;;;;;;;12.88;3.33;;;;;;;-145.45;100.00;62759.84;5316399;28;20516;-75
2022/05/16 10:40:28;;;;;;;7.82;3.55;;;;;;;-145.45;100.00;62759.84;5316336;27;20078;-76
2022/05/16 10:43:38;;;;;;;10.82;3.17;;;;;;;-145.45;100.00;62759.84;5286721;28;20017;-76
2022/05/16 10:46:21;;;;;;;7.93;3.60;;;;;;;-145.45;100.00;62759.84;5315495;27;20111;-75
2022/05/16 10:49:02;;;;;;;13.35;3.85;;;;;;;-145.45;100.00;62759.84;5318097;27;20035;-76
2022/05/16 10:51:38;;;;;;;8.40;3.33;;;;;;;-145.45;100.00;62759.84;5319183;27;20040;-75
2022/05/16 10:54:18;;;;;;;8.57;3.22;;;;;;;-145.45;100.00;62759.84;5294427;28;20499;-76
2022/05/16 10:57:21;;;;;;;10.52;3.40;;;;;;;-145.45;100.00;62759.84;5314719;27;20509;-75
2022/05/16 11:00:19;;;;;;;4.95;3.22;;;;;;;-145.45;100.00;62759.84;5287583;27;20047;-76
2022/05/16 11:03:11;;;;;;;10.15;3.85;;;;;;;-145.45;100.00;62759.84;5318172;27;20102;-76
2022/05/16 11:05:54;;;;;;;8.38;3.25;;;;;;;-145.45;100.00;62759.84;5321533;28;20032;-76
2022/05/16 11:08:32;;;;;;;9.02;4.25;;;;;;;-145.45;100.00;62759.84;5312351;28;20048;-76
2022/05/16 11:11:20;;;;;;;8.35;4.10;;;;;;;-145.45;100.00;62759.84;5312465;27;20040;-76
2022/05/16 11:13:59;;;;;;;10.77;3.40;;;;;;;-145.45;100.00;62759.84;5320418;28;20060;-76
2022/05/16 11:16:34;;;;;;;17.90;4.38;;;;;;;-145.45;100.00;62759.84;5325426;27;20360;-76
2022/05/16 11:19:46;;;;;;;18.17;3.88;;;;;;;-145.45;100.00;62759.84;5315714;28;20040;-75
2022/05/16 11:22:30;;;;;;;8.15;3.78;;;;;;;-145.45;100.00;62759.84;5235429;28;20038;-75
2022/05/16 11:25:16;;;;;;;10.65;4.22;;;;;;;-145.45;100.00;62759.84;5233641;28;20025;-75
2022/05/16 11:28:15;;;;;;;6.17;3.57;;;;;;;-145.45;100.00;62759.84;5301928;28;20047;-75
2022/05/16 11:31:08;;;;;;;10.55;4.22;;;;;;;-145.45;100.00;62759.84;5313701;27;20032;-76
2022/05/16 11:33:44;;;;;;;10.52;4.45;;;;;;;-145.45;100.00;62759.84;5316121;28;20021;-75
2022/05/16 11:36:28;;;;;;;9.77;4.45;;;;;;;-145.45;100.00;62759.84;5307325;28;20341;-75
2022/05/16 11:39:25;;;;;;;12.15;4.95;;;;;;;-145.45;100.00;62759.84;5315359;28;20020;-75
2022/05/16 11:42:25;;;;;;;9.80;4.30;;;;;;;-145.45;100.00;62759.84;5306757;28;20028;-75
2022/05/16 11:45:13;;;;;;;9.57;3.80;;;;;;;-145.45;100.00;62759.84;5325785;28;20030;-75
2022/05/16 11:47:50;;;;;;;5.97;3.83;;;;;;;-145.45;100.00;62759.84;5340742;27;20479;-75
2022/05/16 11:50:31;;;;;;;10.20;4.20;;;;;;;-145.45;100.00;62759.84;5325223;27;20092;-75
2022/05/16 11:53:21;;;;;;;6.85;4.03;;;;;;;-145.45;100.00;62759.84;5304464;28;20069;-74
2022/05/16 12:01:35;;;;;;;10.40;6.25;;;;;;;-145.45;100.00;62759.84;5324849;28;20488;-76
2022/05/16 12:04:10;;;;;;;14.85;6.57;;;;;;;-145.45;100.00;62759.84;5290320;28;20055;-76
2022/05/16 12:06:48;;;;;;;16.07;8.43;;;;;;;-145.45;100.00;62759.84;5313762;28;20028;-76
2022/05/16 12:09:31;;;;;;;15.30;8.48;;;;;;;-145.45;100.00;62759.84;5304576;28;20290;-75
2022/05/16 12:12:10;;;;;;;11.30;8.10;;;;;;;-145.45;100.00;62759.84;5304291;28;20330;-75